createdAt,value
2022-11-21T00:00:59.787Z,998.43
2022-11-21T00:01:59.819Z,998.44
2022-11-21T00:02:59.740Z,998.52
2022-11-21T00:03:59.726Z,998.52
2022-11-21T00:04:59.733Z,998.51
2022-11-21T00:05:59.730Z,998.51
2022-11-21T00:06:59.805Z,998.55
2022-11-21T00:07:59.680Z,998.49
2022-11-21T00:08:59.702Z,998.48
2022-11-21T00:09:59.659Z,998.48
2022-11-21T00:10:59.648Z,998.47
2022-11-21T00:11:59.657Z,998.48
2022-11-21T00:12:59.643Z,998.52
2022-11-21T00:13:59.617Z,998.51
2022-11-21T00:14:59.599Z,998.48
2022-11-21T00:15:59.588Z,998.50
2022-11-21T00:16:59.608Z,998.50
2022-11-21T00:17:59.567Z,998.51
2022-11-21T00:18:59.568Z,998.54
2022-11-21T00:19:59.547Z,998.46
2022-11-21T00:20:59.547Z,998.54
2022-11-21T00:21:59.549Z,998.55
2022-11-21T00:22:59.519Z,998.54
2022-11-21T00:23:59.507Z,998.51
2022-11-21T00:24:59.497Z,998.54
2022-11-21T00:25:59.486Z,998.52
2022-11-21T00:26:59.497Z,998.53
2022-11-21T00:27:59.457Z,998.52
2022-11-21T00:28:59.455Z,998.52
2022-11-21T00:29:59.437Z,998.53
2022-11-21T00:30:59.437Z,998.58
2022-11-21T00:31:59.417Z,998.55
2022-11-21T00:32:59.428Z,998.66
2022-11-21T00:33:59.395Z,998.66
2022-11-21T00:34:59.388Z,998.68
2022-11-21T00:35:59.368Z,998.67
2022-11-21T00:36:59.358Z,998.71
2022-11-21T00:37:59.378Z,998.70
2022-11-21T00:38:59.337Z,998.67
2022-11-21T00:39:59.329Z,998.64
2022-11-21T00:40:59.324Z,998.71
2022-11-21T00:41:59.306Z,998.77
2022-11-21T00:42:59.371Z,998.77
2022-11-21T00:43:59.298Z,998.79
2022-11-21T00:44:59.270Z,998.78
2022-11-21T00:45:59.268Z,998.80
2022-11-21T00:46:59.256Z,998.84
2022-11-21T00:47:59.256Z,998.81
2022-11-21T00:48:59.258Z,998.86
2022-11-21T00:49:59.217Z,998.87
2022-11-21T00:50:59.208Z,998.87
2022-11-21T00:51:59.196Z,998.81
2022-11-21T00:52:59.187Z,998.84
2022-11-21T00:53:59.169Z,998.79
2022-11-21T00:54:59.190Z,998.83
2022-11-21T00:55:59.175Z,998.84
2022-11-21T00:56:59.138Z,998.83
2022-11-21T00:57:59.130Z,998.84
2022-11-21T00:58:59.138Z,998.84
2022-11-21T00:59:59.116Z,998.82
2022-11-21T01:00:59.163Z,998.83
2022-11-21T01:01:59.087Z,998.86
2022-11-21T01:02:59.088Z,998.85
2022-11-21T01:03:59.065Z,998.86
2022-11-21T01:04:59.056Z,998.86
2022-11-21T01:05:59.066Z,998.87
2022-11-21T01:06:59.089Z,998.88
2022-11-21T01:07:59.018Z,998.91
2022-11-21T01:08:59.027Z,998.94
2022-11-21T01:09:58.997Z,998.95
2022-11-21T01:10:58.986Z,999.00
2022-11-21T01:11:58.997Z,999.03
2022-11-21T01:12:58.974Z,999.04
2022-11-21T01:13:58.975Z,999.03
2022-11-21T01:14:58.955Z,999.04
2022-11-21T01:15:58.936Z,999.04
2022-11-21T01:16:58.925Z,999.01
2022-11-21T01:17:58.907Z,999.04
2022-11-21T01:18:58.926Z,999.07
2022-11-21T01:19:58.885Z,999.06
2022-11-21T01:20:58.884Z,999.06
2022-11-21T01:21:58.866Z,999.06
2022-11-21T01:22:58.874Z,999.05
2022-11-21T01:23:58.844Z,999.09
2022-11-21T01:24:58.856Z,999.12
2022-11-21T01:25:58.824Z,999.11
2022-11-21T01:26:58.835Z,999.13
2022-11-21T01:27:58.797Z,999.12
2022-11-21T01:28:58.790Z,999.16
2022-11-21T01:29:58.776Z,999.15
2022-11-21T01:30:58.766Z,999.17
2022-11-21T01:31:58.780Z,999.18
2022-11-21T01:32:58.755Z,999.15
2022-11-21T01:33:58.737Z,999.15
2022-11-21T01:34:58.749Z,999.17
2022-11-21T01:35:58.719Z,999.10
2022-11-21T01:36:58.703Z,999.14
2022-11-21T01:37:58.712Z,999.10
2022-11-21T01:38:58.676Z,999.08
2022-11-21T01:39:58.668Z,999.11
2022-11-21T01:40:58.657Z,999.17
2022-11-21T01:41:58.645Z,999.15
2022-11-21T01:42:58.658Z,999.12
2022-11-21T01:43:58.625Z,999.18
2022-11-21T01:44:58.615Z,999.09
2022-11-21T01:45:58.605Z,999.15
2022-11-21T01:46:58.594Z,999.18
2022-11-21T01:47:58.586Z,999.12
2022-11-21T01:48:58.597Z,999.19
2022-11-21T01:49:58.564Z,999.14
2022-11-21T01:50:58.546Z,999.12
2022-11-21T01:51:58.534Z,999.09
2022-11-21T01:52:58.524Z,999.10
2022-11-21T01:53:58.516Z,999.09
2022-11-21T01:54:58.525Z,999.07
2022-11-21T01:55:58.496Z,999.09
2022-11-21T01:56:58.476Z,999.07
2022-11-21T01:57:58.475Z,999.09
2022-11-21T01:58:58.475Z,999.09
2022-11-21T01:59:58.454Z,999.03
2022-11-21T02:00:58.476Z,999.06
2022-11-21T02:01:58.426Z,999.04
2022-11-21T02:02:58.414Z,999.07
2022-11-21T02:03:58.427Z,999.06
2022-11-21T02:04:58.394Z,999.05
2022-11-21T02:05:58.391Z,999.05
2022-11-21T02:06:58.374Z,999.08
2022-11-21T02:07:58.366Z,999.06
2022-11-21T02:08:58.375Z,999.09
2022-11-21T02:09:58.356Z,999.08
2022-11-21T02:10:58.324Z,999.08
2022-11-21T02:11:58.316Z,999.11
2022-11-21T02:12:58.304Z,999.07
2022-11-21T02:13:58.296Z,999.13
2022-11-21T02:14:58.305Z,999.13
2022-11-21T02:15:58.275Z,999.13
2022-11-21T02:16:58.284Z,999.17
2022-11-21T02:17:58.254Z,999.12
2022-11-21T02:18:58.243Z,999.12
2022-11-21T02:19:58.257Z,999.14
2022-11-21T02:20:58.222Z,999.19
2022-11-21T02:21:58.204Z,999.22
2022-11-21T02:22:58.201Z,999.22
2022-11-21T02:24:00.547Z,999.24
2022-11-21T02:24:58.201Z,999.27
2022-11-21T02:25:58.174Z,999.29
2022-11-21T02:26:58.159Z,999.36
2022-11-21T02:27:58.156Z,999.34
2022-11-21T02:28:58.134Z,999.32
2022-11-21T02:29:58.126Z,999.27
2022-11-21T02:30:58.133Z,999.19
2022-11-21T02:31:58.106Z,999.13
2022-11-21T02:32:58.085Z,999.19
2022-11-21T02:33:58.074Z,999.23
2022-11-21T02:34:58.062Z,999.33
2022-11-21T02:35:58.074Z,999.26
2022-11-21T02:36:58.066Z,999.26
2022-11-21T02:37:58.034Z,999.24
2022-11-21T02:38:58.023Z,999.22
2022-11-21T02:39:58.023Z,999.16
2022-11-21T02:40:58.022Z,999.20
2022-11-21T02:41:57.993Z,999.23
2022-11-21T02:42:57.975Z,999.27
2022-11-21T02:43:57.964Z,999.28
2022-11-21T02:44:57.966Z,999.24
2022-11-21T02:45:57.964Z,999.25
2022-11-21T02:46:57.941Z,999.25
2022-11-21T02:48:03.359Z,999.28
2022-11-21T02:48:58.912Z,999.33
2022-11-21T02:49:57.934Z,999.25
2022-11-21T02:50:57.891Z,999.32
2022-11-21T02:51:57.884Z,999.36
2022-11-21T02:52:57.866Z,999.34
2022-11-21T02:53:57.858Z,999.35
2022-11-21T02:54:57.875Z,999.33
2022-11-21T02:55:57.861Z,999.37
2022-11-21T02:56:57.822Z,999.35
2022-11-21T02:58:01.736Z,999.32
2022-11-21T02:58:58.802Z,999.39
2022-11-21T02:59:57.793Z,999.39
2022-11-21T03:00:57.824Z,999.33
2022-11-21T03:01:57.774Z,999.34
2022-11-21T03:02:57.753Z,999.29
2022-11-21T03:03:57.753Z,999.22
2022-11-21T03:04:57.742Z,999.28
2022-11-21T03:05:57.745Z,999.29
2022-11-21T03:06:57.719Z,999.29
2022-11-21T03:07:57.705Z,999.31
2022-11-21T03:08:57.694Z,999.30
2022-11-21T03:09:57.682Z,999.31
2022-11-21T03:10:57.692Z,999.25
2022-11-21T03:11:57.662Z,999.23
2022-11-21T03:12:57.644Z,999.21
2022-11-21T03:13:57.631Z,999.21
2022-11-21T03:14:57.624Z,999.25
2022-11-21T03:15:57.611Z,999.19
2022-11-21T03:16:57.624Z,999.16
2022-11-21T03:17:57.593Z,999.18
2022-11-21T03:18:57.583Z,999.20
2022-11-21T03:19:57.563Z,999.20
2022-11-21T03:20:57.561Z,999.20
2022-11-21T03:21:57.572Z,999.23
2022-11-21T03:22:57.534Z,999.11
2022-11-21T03:23:57.552Z,999.13
2022-11-21T03:24:57.511Z,999.15
2022-11-21T03:25:57.503Z,999.12
2022-11-21T03:26:57.493Z,999.12
2022-11-21T03:27:57.486Z,999.10
2022-11-21T03:28:57.490Z,999.10
2022-11-21T03:29:57.485Z,999.08
2022-11-21T03:30:57.452Z,999.16
2022-11-21T03:31:57.442Z,999.17
2022-11-21T03:32:57.431Z,999.13
2022-11-21T03:33:57.442Z,999.14
2022-11-21T03:34:57.401Z,999.17
2022-11-21T03:35:57.411Z,999.19
2022-11-21T03:36:57.381Z,999.15
2022-11-21T03:37:57.371Z,999.15
2022-11-21T03:38:57.382Z,999.15
2022-11-21T03:39:57.351Z,999.09
2022-11-21T03:40:57.338Z,999.04
2022-11-21T03:41:57.333Z,999.04
2022-11-21T03:42:57.310Z,999.13
2022-11-21T03:43:57.333Z,999.10
2022-11-21T03:44:57.293Z,999.13
2022-11-21T03:45:57.281Z,999.09
2022-11-21T03:46:57.272Z,999.10
2022-11-21T03:47:57.260Z,999.09
2022-11-21T03:48:57.249Z,999.12
2022-11-21T03:49:57.263Z,999.12
2022-11-21T03:50:57.223Z,999.10
2022-11-21T03:51:57.220Z,999.18
2022-11-21T03:52:57.210Z,999.12
2022-11-21T03:53:57.194Z,999.12
2022-11-21T03:54:57.189Z,999.14
2022-11-21T03:55:57.192Z,999.17
2022-11-21T03:56:57.160Z,999.20
2022-11-21T03:57:57.152Z,999.21
2022-11-21T03:58:57.141Z,999.17
2022-11-21T03:59:57.132Z,999.13
2022-11-21T04:00:57.315Z,999.15
2022-11-21T04:01:57.146Z,999.16
2022-11-21T04:02:57.091Z,999.10
2022-11-21T04:03:57.082Z,999.16
2022-11-21T04:04:57.070Z,999.17
2022-11-21T04:05:57.081Z,999.13
2022-11-21T04:06:57.051Z,999.17
2022-11-21T04:07:57.042Z,999.19
2022-11-21T04:08:57.031Z,999.17
2022-11-21T04:09:57.020Z,999.19
2022-11-21T04:10:57.032Z,999.20
2022-11-21T04:11:56.995Z,999.19
2022-11-21T04:12:56.990Z,999.20
2022-11-21T04:13:56.972Z,999.19
2022-11-21T04:14:56.961Z,999.17
2022-11-21T04:15:56.972Z,999.12
2022-11-21T04:16:56.942Z,999.12
2022-11-21T04:17:56.930Z,999.13
2022-11-21T04:18:56.922Z,999.13
2022-11-21T04:19:56.908Z,999.17
2022-11-21T04:20:56.923Z,999.18
2022-11-21T04:21:56.889Z,999.18
2022-11-21T04:22:56.881Z,999.16
2022-11-21T04:23:56.860Z,999.11
2022-11-21T04:24:56.850Z,999.16
2022-11-21T04:25:56.864Z,999.14
2022-11-21T04:26:56.832Z,999.10
2022-11-21T04:27:56.822Z,999.12
2022-11-21T04:28:56.812Z,999.14
2022-11-21T04:29:56.799Z,999.07
2022-11-21T04:30:59.346Z,999.10
2022-11-21T04:31:56.803Z,999.14
2022-11-21T04:32:56.761Z,999.24
2022-11-21T04:33:56.750Z,999.15
2022-11-21T04:34:56.739Z,999.13
2022-11-21T04:35:56.729Z,999.20
2022-11-21T04:36:56.782Z,999.13
2022-11-21T04:37:56.709Z,999.11
2022-11-21T04:38:56.701Z,999.13
2022-11-21T04:39:56.689Z,999.10
2022-11-21T04:40:56.679Z,999.13
2022-11-21T04:41:56.690Z,999.23
2022-11-21T04:42:56.662Z,999.17
2022-11-21T04:43:56.639Z,999.21
2022-11-21T04:44:56.629Z,999.23
2022-11-21T04:45:56.621Z,999.24
2022-11-21T04:46:59.927Z,999.19
2022-11-21T04:47:57.619Z,999.20
2022-11-21T04:48:56.589Z,999.21
2022-11-21T04:49:56.581Z,999.19
2022-11-21T04:50:56.571Z,999.18
2022-11-21T04:51:56.557Z,999.21
2022-11-21T04:52:56.567Z,999.18
2022-11-21T04:53:56.533Z,999.18
2022-11-21T04:54:56.527Z,999.19
2022-11-21T04:55:56.508Z,999.19
2022-11-21T04:56:56.502Z,999.16
2022-11-21T04:57:56.509Z,999.15
2022-11-21T04:58:56.480Z,999.18
2022-11-21T04:59:56.459Z,999.11
2022-11-21T05:00:56.505Z,999.19
2022-11-21T05:01:56.442Z,999.14
2022-11-21T05:02:56.458Z,999.13
2022-11-21T05:03:56.439Z,999.17
2022-11-21T05:04:56.414Z,999.10
2022-11-21T05:05:56.398Z,999.09
2022-11-21T05:06:56.389Z,999.07
2022-11-21T05:07:56.540Z,999.08
2022-11-21T05:08:56.367Z,999.01
2022-11-21T05:09:56.350Z,998.99
2022-11-21T05:10:56.339Z,999.00
2022-11-21T05:11:56.358Z,998.94
2022-11-21T05:12:56.332Z,998.93
2022-11-21T05:13:56.312Z,998.92
2022-11-21T05:14:56.309Z,998.89
2022-11-21T05:15:56.290Z,998.89
2022-11-21T05:16:56.314Z,998.90
2022-11-21T05:17:56.288Z,998.91
2022-11-21T05:18:56.258Z,998.97
2022-11-21T05:19:56.240Z,999.02
2022-11-21T05:20:56.237Z,999.09
2022-11-21T05:21:56.243Z,999.11
2022-11-21T05:22:56.228Z,999.12
2022-11-21T05:23:56.198Z,999.10
2022-11-21T05:24:56.189Z,999.12
2022-11-21T05:25:56.177Z,999.12
2022-11-21T05:26:56.173Z,999.05
2022-11-21T05:27:56.176Z,999.08
2022-11-21T05:28:56.146Z,999.09
2022-11-21T05:29:56.131Z,999.13
2022-11-21T05:30:56.119Z,999.07
2022-11-21T05:31:56.108Z,999.05
2022-11-21T05:32:56.127Z,999.08
2022-11-21T05:33:56.087Z,999.09
2022-11-21T05:34:56.089Z,999.08
2022-11-21T05:35:56.068Z,999.05
2022-11-21T05:36:56.057Z,999.13
2022-11-21T05:37:56.069Z,999.06
2022-11-21T05:38:56.039Z,999.09
2022-11-21T05:39:56.019Z,999.06
2022-11-21T05:40:56.010Z,999.02
2022-11-21T05:41:59.906Z,998.98
2022-11-21T05:42:57.009Z,999.06
2022-11-21T05:43:55.977Z,999.07
2022-11-21T05:44:55.976Z,999.12
2022-11-21T05:45:55.958Z,999.16
2022-11-21T05:46:55.957Z,999.19
2022-11-21T05:47:55.958Z,999.25
2022-11-21T05:48:55.928Z,999.27
2022-11-21T05:49:55.917Z,999.30
2022-11-21T05:50:55.907Z,999.27
2022-11-21T05:51:55.890Z,999.27
2022-11-21T05:52:55.907Z,999.22
2022-11-21T05:53:55.869Z,999.19
2022-11-21T05:54:55.871Z,999.13
2022-11-21T05:55:55.848Z,999.13
2022-11-21T05:56:55.839Z,999.19
2022-11-21T05:57:55.857Z,999.19
2022-11-21T05:58:55.819Z,999.18
2022-11-21T05:59:55.806Z,999.25
2022-11-21T06:00:59.729Z,999.26
2022-11-21T06:01:55.784Z,999.29
2022-11-21T06:02:55.790Z,999.27
2022-11-21T06:03:55.788Z,999.29
2022-11-21T06:04:55.746Z,999.30
2022-11-21T06:05:55.745Z,999.33
2022-11-21T06:06:55.727Z,999.29
2022-11-21T06:07:55.719Z,999.26
2022-11-21T06:08:55.725Z,999.26
2022-11-21T06:09:55.688Z,999.28
2022-11-21T06:10:55.686Z,999.31
2022-11-21T06:11:55.677Z,999.24
2022-11-21T06:12:55.661Z,999.25
2022-11-21T06:13:55.677Z,999.25
2022-11-21T06:14:55.637Z,999.29
2022-11-21T06:15:55.628Z,999.31
2022-11-21T06:16:55.617Z,999.30
2022-11-21T06:17:55.610Z,999.24
2022-11-21T06:18:58.598Z,999.29
2022-11-21T06:19:55.609Z,999.24
2022-11-21T06:20:55.570Z,999.21
2022-11-21T06:21:55.565Z,999.21
2022-11-21T06:22:55.548Z,999.19
2022-11-21T06:23:55.539Z,999.21
2022-11-21T06:24:55.557Z,999.09
2022-11-21T06:25:55.550Z,999.06
2022-11-21T06:26:55.507Z,999.08
2022-11-21T06:27:55.499Z,999.02
2022-11-21T06:28:55.488Z,999.04
2022-11-21T06:29:55.496Z,999.03
2022-11-21T06:30:55.458Z,999.00
2022-11-21T06:31:55.459Z,999.02
2022-11-21T06:32:55.483Z,998.96
2022-11-21T06:33:55.429Z,999.00
2022-11-21T06:34:55.438Z,998.98
2022-11-21T06:35:55.405Z,999.04
2022-11-21T06:36:55.397Z,999.02
2022-11-21T06:37:55.395Z,999.01
2022-11-21T06:38:55.377Z,999.06
2022-11-21T06:39:55.387Z,999.05
2022-11-21T06:40:55.355Z,999.05
2022-11-21T06:41:55.338Z,999.03
2022-11-21T06:42:55.326Z,999.02
2022-11-21T06:43:55.316Z,998.97
2022-11-21T06:44:55.334Z,998.99
2022-11-21T06:45:55.296Z,999.02
2022-11-21T06:46:55.286Z,998.97
2022-11-21T06:47:55.278Z,999.00
2022-11-21T06:48:55.266Z,999.03
2022-11-21T06:49:55.279Z,999.01
2022-11-21T06:50:55.264Z,998.99
2022-11-21T06:51:55.235Z,998.97
2022-11-21T06:52:55.223Z,998.94
2022-11-21T06:53:55.207Z,998.88
2022-11-21T06:54:55.199Z,998.96
2022-11-21T06:55:55.206Z,998.97
2022-11-21T06:56:55.195Z,999.00
2022-11-21T06:57:55.172Z,999.04
2022-11-21T06:58:55.156Z,999.07
2022-11-21T06:59:55.146Z,999.07
2022-11-21T07:00:55.190Z,999.08
2022-11-21T07:01:55.127Z,999.13
2022-11-21T07:03:00.088Z,999.10
2022-11-21T07:03:56.109Z,999.10
2022-11-21T07:04:55.087Z,999.09
2022-11-21T07:05:55.106Z,999.06
2022-11-21T07:06:55.065Z,999.07
2022-11-21T07:07:55.056Z,999.09
2022-11-21T07:09:25.229Z,999.06
2022-11-21T07:09:56.044Z,999.06
2022-11-21T07:11:22.959Z,999.11
2022-11-21T07:11:56.013Z,999.09
2022-11-21T07:12:55.019Z,999.22
2022-11-21T07:13:54.985Z,999.24
2022-11-21T07:14:54.978Z,999.21
2022-11-21T07:15:54.967Z,999.20
2022-11-21T07:16:54.975Z,999.16
2022-11-21T07:17:54.945Z,999.17
2022-11-21T07:18:54.941Z,999.17
2022-11-21T07:19:54.927Z,999.16
2022-11-21T07:20:54.927Z,999.14
2022-11-21T07:21:54.908Z,999.13
2022-11-21T07:22:54.915Z,999.13
2022-11-21T07:23:54.885Z,999.11
2022-11-21T07:24:54.870Z,999.11
2022-11-21T07:25:54.866Z,999.11
2022-11-21T07:26:54.845Z,999.11
2022-11-21T07:27:54.865Z,999.10
2022-11-21T07:28:54.826Z,999.05
2022-11-21T07:29:54.825Z,999.07
2022-11-21T07:30:54.807Z,999.06
2022-11-21T07:31:54.796Z,999.10
2022-11-21T07:32:54.784Z,999.11
2022-11-21T07:33:54.810Z,999.09
2022-11-21T07:34:54.766Z,999.08
2022-11-21T07:35:54.757Z,999.09
2022-11-21T07:36:54.743Z,999.12
2022-11-21T07:37:54.725Z,999.11
2022-11-21T07:38:54.714Z,999.06
2022-11-21T07:39:54.726Z,999.06
2022-11-21T07:40:54.698Z,999.11
2022-11-21T07:41:54.692Z,999.12
2022-11-21T07:42:54.675Z,999.10
2022-11-21T07:43:54.694Z,999.10
2022-11-21T07:44:54.654Z,999.11
2022-11-21T07:45:54.641Z,999.12
2022-11-21T07:46:54.635Z,999.13
2022-11-21T07:47:54.624Z,999.14
2022-11-21T07:48:55.890Z,999.16
2022-11-21T07:49:54.627Z,999.14
2022-11-21T07:50:54.596Z,999.13
2022-11-21T07:51:54.576Z,999.10
2022-11-21T07:52:54.565Z,999.13
2022-11-21T07:53:54.563Z,999.17
2022-11-21T07:54:54.563Z,999.16
2022-11-21T07:55:54.535Z,999.14
2022-11-21T07:56:54.525Z,999.15
2022-11-21T07:57:54.515Z,999.14
2022-11-21T07:58:54.504Z,999.11
2022-11-21T07:59:54.516Z,999.09
2022-11-21T08:00:54.482Z,999.08
2022-11-21T08:01:54.503Z,999.08
2022-11-21T08:02:54.458Z,999.08
2022-11-21T08:03:54.454Z,999.09
2022-11-21T08:04:54.436Z,999.05
2022-11-21T08:05:54.466Z,999.05
2022-11-21T08:06:54.415Z,999.01
2022-11-21T08:07:54.405Z,999.03
2022-11-21T08:08:54.395Z,999.00
2022-11-21T08:09:54.385Z,999.00
2022-11-21T08:10:54.374Z,998.94
2022-11-21T08:11:54.385Z,998.95
2022-11-21T08:12:54.360Z,999.00
2022-11-21T08:13:54.349Z,998.96
2022-11-21T08:14:54.326Z,998.92
2022-11-21T08:15:54.325Z,998.88
2022-11-21T08:16:54.325Z,998.87
2022-11-21T08:17:54.304Z,998.86
2022-11-21T08:18:54.286Z,998.81
2022-11-21T08:19:54.299Z,998.78
2022-11-21T08:20:54.265Z,998.73
2022-11-21T08:21:54.282Z,998.78
2022-11-21T08:22:54.245Z,998.72
2022-11-21T08:23:54.244Z,998.74
2022-11-21T08:24:54.227Z,998.66
2022-11-21T08:25:54.216Z,998.73
2022-11-21T08:26:54.226Z,998.72
2022-11-21T08:27:54.194Z,998.68
2022-11-21T08:28:59.624Z,998.68
2022-11-21T08:29:55.176Z,998.74
2022-11-21T08:30:54.163Z,998.67
2022-11-21T08:31:54.176Z,998.73
2022-11-21T08:32:54.146Z,998.76
2022-11-21T08:33:54.126Z,998.75
2022-11-21T08:34:54.116Z,998.79
2022-11-21T08:35:54.114Z,998.78
2022-11-21T08:36:54.117Z,998.86
2022-11-21T08:37:54.083Z,998.82
2022-11-21T08:38:54.074Z,998.91
2022-11-21T08:39:54.065Z,998.93
2022-11-21T08:40:54.068Z,998.94
2022-11-21T08:41:54.065Z,998.99
2022-11-21T08:42:54.034Z,998.95
2022-11-21T08:43:54.025Z,998.98
2022-11-21T08:44:54.022Z,998.98
2022-11-21T08:45:54.004Z,999.03
2022-11-21T08:46:54.013Z,999.00
2022-11-21T08:47:53.985Z,998.94
2022-11-21T08:48:53.964Z,998.90
2022-11-21T08:49:53.972Z,998.96
2022-11-21T08:50:53.946Z,998.93
2022-11-21T08:51:53.972Z,998.95
2022-11-21T08:52:53.933Z,998.96
2022-11-21T08:53:53.924Z,999.01
2022-11-21T08:54:53.907Z,999.04
2022-11-21T08:55:53.903Z,999.04
2022-11-21T08:56:53.904Z,999.00
2022-11-21T08:57:53.874Z,998.99
2022-11-21T08:58:53.864Z,998.91
2022-11-21T08:59:53.855Z,998.90
2022-11-21T09:00:53.846Z,998.84
2022-11-21T09:01:53.917Z,998.88
2022-11-21T09:02:53.843Z,998.89
2022-11-21T09:03:53.818Z,998.85
2022-11-21T09:04:53.795Z,998.84
2022-11-21T09:05:53.796Z,998.78
2022-11-21T09:06:53.776Z,998.83
2022-11-21T09:07:53.786Z,998.81
2022-11-21T09:08:53.763Z,998.82
2022-11-21T09:09:53.753Z,998.86
2022-11-21T09:10:53.734Z,998.84
2022-11-21T09:11:53.752Z,998.81
2022-11-21T09:12:53.733Z,998.79
2022-11-21T09:13:53.712Z,998.80
2022-11-21T09:14:53.693Z,998.82
2022-11-21T09:15:53.694Z,998.78
2022-11-21T09:16:57.960Z,998.80
2022-11-21T09:17:54.685Z,998.84
2022-11-21T09:18:53.657Z,998.79
2022-11-21T09:19:53.694Z,998.78
2022-11-21T09:20:53.626Z,998.76
2022-11-21T09:21:53.624Z,998.73
2022-11-21T09:22:53.637Z,998.69
2022-11-21T09:23:53.604Z,998.67
2022-11-21T09:24:53.586Z,998.60
2022-11-21T09:25:53.583Z,998.65
2022-11-21T09:26:53.571Z,998.62
2022-11-21T09:27:53.565Z,998.67
2022-11-21T09:28:53.566Z,998.70
2022-11-21T09:29:54.388Z,998.72
2022-11-21T09:30:53.525Z,998.72
2022-11-21T09:31:53.513Z,998.71
2022-11-21T09:32:53.504Z,998.55
2022-11-21T09:33:55.073Z,998.56
2022-11-21T09:34:53.503Z,998.49
2022-11-21T09:35:53.476Z,998.43
2022-11-21T09:36:53.461Z,998.51
2022-11-21T09:37:53.464Z,998.43
2022-11-21T09:38:53.434Z,998.37
2022-11-21T09:39:53.451Z,998.40
2022-11-21T09:40:53.416Z,998.37
2022-11-21T09:41:53.419Z,998.33
2022-11-21T09:42:53.392Z,998.32
2022-11-21T09:43:55.864Z,998.35
2022-11-21T09:44:53.395Z,998.39
2022-11-21T09:45:53.373Z,998.33
2022-11-21T09:46:53.352Z,998.32
2022-11-21T09:47:53.345Z,998.36
2022-11-21T09:48:53.333Z,998.41
2022-11-21T09:49:53.314Z,998.42
2022-11-21T09:50:54.155Z,998.45
2022-11-21T09:51:53.305Z,998.44
2022-11-21T09:52:53.287Z,998.46
2022-11-21T09:53:53.282Z,998.45
2022-11-21T09:54:53.271Z,998.49
2022-11-21T09:55:53.262Z,998.43
2022-11-21T09:56:53.265Z,998.53
2022-11-21T09:57:53.235Z,998.53
2022-11-21T09:58:53.224Z,998.56
2022-11-21T09:59:53.223Z,998.59
2022-11-21T10:00:53.293Z,998.55
2022-11-21T10:01:53.215Z,998.50
2022-11-21T10:02:53.204Z,998.46
2022-11-21T10:03:53.166Z,998.39
2022-11-21T10:04:53.163Z,998.43
2022-11-21T10:05:53.157Z,998.43
2022-11-21T10:06:53.141Z,998.44
2022-11-21T10:07:53.179Z,998.43
2022-11-21T10:08:53.114Z,998.43
2022-11-21T10:09:53.104Z,998.37
2022-11-21T10:10:53.093Z,998.30
2022-11-21T10:11:53.092Z,998.29
2022-11-21T10:12:53.094Z,998.22
2022-11-21T10:13:53.063Z,998.20
2022-11-21T10:14:53.054Z,998.10
2022-11-21T10:15:53.034Z,998.13
2022-11-21T10:16:53.035Z,998.12
2022-11-21T10:17:53.024Z,998.12
2022-11-21T10:18:53.033Z,998.10
2022-11-21T10:19:53.001Z,998.12
2022-11-21T10:20:53.023Z,998.07
2022-11-21T10:21:52.974Z,998.09
2022-11-21T10:22:52.963Z,998.06
2022-11-21T10:23:52.974Z,998.08
2022-11-21T10:24:52.945Z,998.09
2022-11-21T10:25:52.934Z,997.96
2022-11-21T10:26:52.929Z,997.94
2022-11-21T10:27:52.911Z,997.94
2022-11-21T10:28:52.905Z,997.96
2022-11-21T10:29:52.919Z,997.95
2022-11-21T10:30:52.905Z,997.97
2022-11-21T10:31:52.877Z,997.90
2022-11-21T10:32:52.854Z,997.89
2022-11-21T10:33:52.865Z,997.90
2022-11-21T10:34:52.834Z,997.84
2022-11-21T10:35:52.826Z,997.80
2022-11-21T10:36:52.844Z,997.83
2022-11-21T10:37:52.804Z,997.81
2022-11-21T10:38:52.795Z,997.79
2022-11-21T10:39:52.776Z,997.79
2022-11-21T10:40:52.794Z,997.79
2022-11-21T10:41:52.762Z,997.75
2022-11-21T10:42:52.753Z,997.72
2022-11-21T10:43:52.840Z,997.67
2022-11-21T10:44:52.725Z,997.66
2022-11-21T10:45:52.746Z,997.66
2022-11-21T10:46:52.726Z,997.59
2022-11-21T10:47:52.694Z,997.64
2022-11-21T10:48:52.693Z,997.59
2022-11-21T10:49:52.674Z,997.61
2022-11-21T10:50:52.690Z,997.57
2022-11-21T10:51:52.653Z,997.57
2022-11-21T10:52:52.648Z,997.58
2022-11-21T10:53:52.634Z,997.54
2022-11-21T10:54:52.622Z,997.54
2022-11-21T10:55:52.617Z,997.54
2022-11-21T10:56:52.626Z,997.48
2022-11-21T10:57:52.584Z,997.44
2022-11-21T10:58:52.602Z,997.42
2022-11-21T10:59:52.565Z,997.42
2022-11-21T11:00:52.623Z,997.38
2022-11-21T11:01:52.545Z,997.40
2022-11-21T11:02:52.535Z,997.38
2022-11-21T11:04:20.736Z,997.37
2022-11-21T11:04:54.049Z,997.36
2022-11-21T11:05:52.505Z,997.36
2022-11-21T11:06:52.496Z,997.30
2022-11-21T11:07:52.503Z,997.31
2022-11-21T11:08:52.474Z,997.25
2022-11-21T11:09:52.669Z,997.30
2022-11-21T11:10:52.456Z,997.30
2022-11-21T11:11:52.444Z,997.29
2022-11-21T11:12:52.429Z,997.27
2022-11-21T11:13:52.444Z,997.15
2022-11-21T11:14:52.405Z,997.11
2022-11-21T11:15:52.396Z,997.10
2022-11-21T11:16:52.385Z,997.07
2022-11-21T11:17:52.384Z,997.07
2022-11-21T11:18:52.367Z,997.07
2022-11-21T11:19:52.373Z,997.01
2022-11-21T11:20:52.343Z,997.01
2022-11-21T11:21:52.334Z,996.95
2022-11-21T11:22:52.324Z,996.92
2022-11-21T11:23:52.312Z,996.93
2022-11-21T11:24:55.079Z,996.92
2022-11-21T11:25:53.282Z,996.89
2022-11-21T11:26:52.274Z,996.87
2022-11-21T11:27:52.266Z,996.82
2022-11-21T11:28:52.260Z,996.81
2022-11-21T11:29:53.153Z,996.82
2022-11-21T11:30:52.246Z,996.92
2022-11-21T11:31:52.224Z,996.94
2022-11-21T11:32:52.215Z,996.99
2022-11-21T11:33:52.203Z,997.00
2022-11-21T11:34:52.215Z,997.02
2022-11-21T11:35:52.192Z,997.01
2022-11-21T11:36:52.173Z,997.06
2022-11-21T11:37:52.156Z,997.05
2022-11-21T11:38:52.145Z,997.03
2022-11-21T11:39:52.166Z,997.02
2022-11-21T11:40:52.133Z,997.02
2022-11-21T11:41:52.115Z,996.97
2022-11-21T11:42:52.134Z,996.89
2022-11-21T11:43:52.096Z,996.91
2022-11-21T11:44:52.096Z,996.81
2022-11-21T11:45:52.074Z,996.84
2022-11-21T11:46:52.068Z,996.84
2022-11-21T11:47:54.856Z,996.78
2022-11-21T11:49:17.516Z,996.78
2022-11-21T11:49:53.034Z,996.76
2022-11-21T11:50:52.026Z,996.72
2022-11-21T11:51:52.007Z,996.78
2022-11-21T11:52:52.054Z,996.78
2022-11-21T11:53:51.985Z,996.81
2022-11-21T11:54:51.979Z,996.84
2022-11-21T11:55:51.965Z,996.83
2022-11-21T11:56:51.954Z,996.81
2022-11-21T11:57:51.945Z,996.84
2022-11-21T11:58:51.954Z,996.83
2022-11-21T11:59:51.924Z,996.79
2022-11-21T12:00:51.916Z,996.73
2022-11-21T12:01:51.940Z,996.78
2022-11-21T12:02:51.894Z,996.74
2022-11-21T12:03:56.593Z,996.68
2022-11-21T12:04:52.917Z,996.69
2022-11-21T12:05:51.858Z,996.71
2022-11-21T12:07:52.811Z,996.66
2022-11-21T12:08:52.879Z,996.62
2022-11-21T12:09:51.835Z,996.57
2022-11-21T12:10:51.814Z,996.56
2022-11-21T12:11:51.797Z,996.53
2022-11-21T12:12:51.785Z,996.51
2022-11-21T12:13:51.766Z,996.50
2022-11-21T12:14:51.791Z,996.49
2022-11-21T12:15:51.747Z,996.42
2022-11-21T12:16:51.735Z,996.35
2022-11-21T12:17:51.726Z,996.34
2022-11-21T12:18:51.714Z,996.23
2022-11-21T12:19:51.708Z,996.24
2022-11-21T12:20:51.725Z,996.22
2022-11-21T12:21:51.687Z,996.16
2022-11-21T12:22:51.677Z,996.19
2022-11-21T12:23:51.662Z,996.17
2022-11-21T12:24:51.655Z,996.15
2022-11-21T12:25:51.663Z,996.14
2022-11-21T12:26:51.625Z,996.12
2022-11-21T12:27:51.628Z,996.12
2022-11-21T12:28:51.614Z,996.12
2022-11-21T12:29:51.597Z,996.14